createdAt,value
2022-08-04T00:02:32.585Z,17.28
2022-08-04T00:07:48.465Z,17.28
2022-08-04T00:12:54.049Z,17.25
2022-08-04T00:18:03.243Z,17.17
2022-08-04T00:23:06.688Z,17.07
2022-08-04T00:28:09.187Z,16.97
2022-08-04T00:33:11.724Z,16.88
2022-08-04T00:38:18.495Z,16.86
2022-08-04T00:43:33.506Z,16.82
2022-08-04T00:48:53.395Z,16.82
2022-08-04T00:54:04.182Z,16.83
2022-08-04T00:59:31.344Z,16.72
2022-08-04T01:04:57.077Z,16.62
2022-08-04T01:10:17.644Z,16.53
2022-08-04T01:15:31.884Z,16.45
2022-08-04T01:21:26.233Z,16.47
2022-08-04T01:26:57.629Z,16.43
2022-08-04T01:32:07.501Z,16.35
2022-08-04T01:37:32.551Z,16.29
2022-08-04T01:42:36.857Z,16.29
2022-08-04T01:47:49.143Z,16.28
2022-08-04T01:52:54.980Z,16.26
2022-08-04T01:57:59.752Z,16.27
2022-08-04T02:03:01.667Z,16.20
2022-08-04T02:08:18.673Z,16.09
2022-08-04T02:13:27.214Z,16.07
2022-08-04T02:19:14.598Z,15.98
2022-08-04T02:24:20.090Z,15.89
2022-08-04T02:29:49.788Z,15.88
2022-08-04T02:35:11.816Z,15.84
2022-08-04T02:40:20.297Z,15.89
2022-08-04T02:45:25.508Z,15.84
2022-08-04T02:50:30.404Z,15.78
2022-08-04T02:55:33.969Z,15.70
2022-08-04T03:00:37.592Z,15.63
2022-08-04T03:05:50.204Z,15.60
2022-08-04T03:11:27.706Z,15.52
2022-08-04T03:16:38.866Z,15.47
2022-08-04T03:21:46.831Z,15.44
2022-08-04T03:27:36.839Z,15.45
2022-08-04T03:33:17.237Z,15.43
2022-08-04T03:38:57.192Z,15.41
2022-08-04T03:44:24.114Z,15.36
2022-08-04T03:49:25.915Z,15.35
2022-08-04T03:54:42.907Z,15.33
2022-08-04T04:00:03.787Z,15.42
2022-08-04T04:05:25.723Z,15.43
2022-08-04T04:11:01.239Z,15.56
2022-08-04T04:16:29.434Z,15.64
2022-08-04T04:21:49.853Z,15.73
2022-08-04T04:27:18.382Z,15.77
2022-08-04T04:32:47.690Z,15.84
2022-08-04T04:37:55.651Z,15.97
2022-08-04T04:43:13.786Z,16.12
2022-08-04T04:48:34.080Z,16.28
2022-08-04T04:54:27.214Z,16.47
2022-08-04T04:59:34.808Z,16.64
2022-08-04T05:04:55.044Z,16.83
2022-08-04T05:10:15.251Z,17.05
2022-08-04T05:15:23.861Z,17.28
2022-08-04T05:20:38.924Z,17.55
2022-08-04T05:25:59.137Z,17.80
2022-08-04T05:31:06.381Z,18.11
2022-08-04T05:36:18.955Z,18.42
2022-08-04T05:41:32.343Z,18.72
2022-08-04T05:46:54.229Z,19.07
2022-08-04T05:52:01.154Z,19.32
2022-08-04T05:57:05.452Z,19.50
2022-08-04T06:02:09.833Z,19.67
2022-08-04T06:07:13.259Z,19.88
2022-08-04T06:12:20.027Z,20.23
2022-08-04T06:19:57.377Z,20.57
2022-08-04T06:23:00.601Z,20.96
2022-08-04T06:28:06.740Z,21.27
2022-08-04T06:33:33.659Z,21.88
2022-08-04T06:38:58.839Z,22.98
2022-08-04T06:44:04.649Z,23.78
2022-08-04T06:49:07.207Z,24.22
2022-08-04T06:54:09.139Z,24.77
2022-08-04T06:59:14.287Z,25.27
2022-08-04T07:04:16.347Z,25.57
2022-08-04T07:09:18.758Z,25.94
2022-08-04T07:14:21.281Z,26.25
2022-08-04T07:19:23.175Z,26.53
2022-08-04T07:24:36.501Z,27.07
2022-08-04T07:29:40.123Z,27.31
2022-08-04T07:34:43.375Z,27.76
2022-08-04T07:39:51.789Z,28.10
2022-08-04T07:44:56.096Z,28.34
2022-08-04T07:49:58.605Z,28.47
2022-08-04T07:55:00.677Z,28.69
2022-08-04T08:00:04.805Z,28.98
2022-08-04T08:05:17.160Z,29.33
2022-08-04T08:10:19.136Z,29.59
2022-08-04T08:15:21.618Z,29.79
2022-08-04T08:20:29.573Z,29.94
2022-08-04T08:25:33.485Z,30.20
2022-08-04T08:30:35.610Z,30.51
2022-08-04T08:35:53.829Z,30.61
2022-08-04T08:41:36.063Z,30.89
2022-08-04T08:46:53.504Z,31.16
2022-08-04T08:52:01.758Z,31.26
2022-08-04T08:57:30.851Z,31.76
2022-08-04T09:02:45.574Z,31.92
2022-08-04T09:08:06.082Z,32.01
2022-08-04T09:13:37.448Z,31.99
2022-08-04T09:18:53.028Z,32.15
2022-08-04T09:24:35.754Z,32.35
2022-08-04T09:30:15.448Z,32.71
2022-08-04T09:35:35.647Z,32.90
2022-08-04T09:40:57.799Z,33.13
2022-08-04T09:46:35.145Z,32.79
2022-08-04T09:51:58.385Z,33.31
2022-08-04T09:57:08.048Z,33.10
2022-08-04T10:02:13.392Z,33.55
2022-08-04T10:07:43.148Z,33.59
2022-08-04T10:13:24.693Z,33.53
2022-08-04T10:18:53.555Z,33.70
2022-08-04T10:24:24.647Z,33.54
2022-08-04T10:29:37.593Z,34.09
2022-08-04T10:35:11.113Z,34.86
2022-08-04T10:40:40.654Z,34.86
2022-08-04T10:45:49.274Z,34.35
2022-08-04T10:51:18.172Z,34.31
2022-08-04T10:56:30.241Z,35.21
2022-08-04T11:01:59.599Z,35.52
2022-08-04T11:07:00.372Z,35.72
2022-08-04T11:12:21.335Z,36.23
2022-08-04T11:17:28.164Z,37.85
2022-08-04T11:22:30.621Z,40.36
2022-08-04T11:28:00.107Z,41.57
2022-08-04T11:33:22.127Z,39.81
2022-08-04T11:38:37.125Z,38.74
2022-08-04T11:44:02.343Z,41.66
2022-08-04T11:49:11.951Z,44.99
2022-08-04T11:54:15.156Z,46.18
2022-08-04T11:59:18.487Z,45.88
2022-08-04T12:05:00.479Z,47.57
2022-08-04T12:10:40.911Z,45.23
2022-08-04T12:15:59.162Z,44.90
2022-08-04T12:21:06.516Z,46.70
2022-08-04T12:26:20.920Z,41.68
2022-08-04T12:31:52.804Z,42.06
2022-08-04T12:37:04.927Z,44.63
2022-08-04T12:42:34.241Z,46.19
2022-08-04T12:47:38.240Z,48.74
2022-08-04T12:53:05.145Z,49.19
2022-08-04T12:58:16.120Z,48.20
2022-08-04T13:03:24.020Z,47.09
2022-08-04T13:08:26.266Z,48.51
2022-08-04T13:13:31.735Z,50.42
2022-08-04T13:18:39.930Z,48.46
2022-08-04T13:24:10.293Z,51.73
2022-08-04T13:29:16.169Z,52.38
2022-08-04T13:34:19.555Z,53.91
2022-08-04T13:39:23.665Z,53.80
2022-08-04T13:44:29.017Z,53.08
2022-08-04T13:49:42.921Z,44.80
2022-08-04T13:54:53.753Z,39.77
2022-08-04T14:00:02.391Z,40.06
2022-08-04T14:05:18.422Z,45.64
2022-08-04T14:10:21.262Z,43.76
2022-08-04T14:16:02.540Z,43.60
2022-08-04T14:21:09.639Z,38.72
2022-08-04T14:26:31.385Z,36.85
2022-08-04T14:31:35.309Z,36.48
2022-08-04T14:36:49.657Z,39.81
2022-08-04T14:42:06.634Z,45.88
2022-08-04T14:47:13.090Z,47.53
2022-08-04T14:52:24.262Z,50.37
2022-08-04T14:57:27.388Z,47.78
2022-08-04T15:02:29.831Z,48.99
2022-08-04T15:07:32.890Z,50.11
2022-08-04T15:12:35.071Z,51.57
2022-08-04T15:17:37.680Z,50.41
2022-08-04T15:22:39.957Z,48.27
2022-08-04T15:27:43.949Z,44.59
2022-08-04T15:32:53.344Z,41.75
2022-08-04T15:38:03.964Z,39.31
2022-08-04T15:43:39.930Z,37.86
2022-08-04T15:48:42.012Z,36.56
2022-08-04T15:54:03.428Z,35.70
2022-08-04T15:59:05.744Z,35.33
2022-08-04T16:04:25.168Z,35.25
2022-08-04T16:09:46.056Z,34.46
2022-08-04T16:14:48.458Z,34.44
2022-08-04T16:20:02.805Z,34.04
2022-08-04T16:25:05.893Z,33.72
2022-08-04T16:30:14.350Z,33.53
2022-08-04T16:35:28.690Z,33.46
2022-08-04T16:40:39.037Z,33.33
2022-08-04T16:45:45.710Z,33.19
2022-08-04T16:50:50.605Z,33.08
2022-08-04T16:55:54.600Z,32.60
2022-08-04T17:00:57.311Z,32.42
2022-08-04T17:06:14.517Z,32.13
2022-08-04T17:11:17.033Z,31.91
2022-08-04T17:16:21.194Z,31.64
2022-08-04T17:21:26.660Z,31.44
2022-08-04T17:26:39.505Z,31.22
2022-08-04T17:31:42.532Z,30.98
2022-08-04T17:36:44.542Z,30.75
2022-08-04T17:41:49.157Z,30.39
2022-08-04T17:46:51.326Z,29.95
2022-08-04T17:52:05.104Z,29.63
2022-08-04T17:57:19.647Z,29.34
2022-08-04T18:02:23.739Z,29.17
2022-08-04T18:08:39.661Z,28.96
2022-08-04T18:13:14.334Z,28.68
2022-08-04T18:23:50.617Z,28.02
2022-08-04T18:28:53.081Z,27.61
2022-08-04T18:33:57.118Z,27.38
2022-08-04T18:39:13.167Z,27.22
2022-08-04T18:44:17.998Z,26.84
2022-08-04T18:50:58.861Z,26.38
2022-08-04T18:54:51.488Z,26.05
2022-08-04T18:59:57.421Z,25.66
2022-08-04T19:05:02.432Z,25.33
2022-08-04T19:10:04.633Z,25.09
2022-08-04T19:15:08.416Z,24.68
2022-08-04T19:20:24.291Z,24.41
2022-08-04T19:25:58.393Z,24.24
2022-08-04T19:30:49.581Z,24.04
2022-08-04T19:35:52.986Z,23.75
2022-08-04T19:40:55.959Z,23.52
2022-08-04T19:45:58.438Z,23.46
2022-08-04T19:51:00.291Z,23.25
2022-08-04T19:56:03.999Z,23.09
2022-08-04T20:01:33.423Z,22.91
2022-08-04T20:06:28.474Z,23.02
2022-08-04T20:11:31.732Z,23.01
2022-08-04T20:16:35.595Z,22.81
2022-08-04T20:21:55.604Z,22.64
2022-08-04T20:26:58.366Z,22.38
2022-08-04T20:32:05.727Z,22.21
2022-08-04T20:37:11.550Z,22.08
2022-08-04T20:42:15.792Z,22.01
2022-08-04T20:47:17.721Z,21.86
2022-08-04T20:52:20.780Z,21.77
2022-08-04T20:57:48.720Z,21.57
2022-08-04T21:02:45.009Z,21.45
2022-08-04T21:07:48.744Z,21.55
2022-08-04T21:12:51.112Z,21.43
2022-08-04T21:17:59.415Z,21.26
2022-08-04T21:23:07.435Z,21.32
2022-08-04T21:28:09.364Z,21.12
2022-08-04T21:33:11.189Z,20.90
2022-08-04T21:38:18.224Z,20.74
2022-08-04T21:43:20.406Z,20.71
2022-08-04T21:48:27.414Z,20.67
2022-08-04T21:53:29.621Z,20.58
2022-08-04T21:58:32.910Z,20.38
2022-08-04T22:03:53.105Z,20.44
2022-08-04T22:08:56.901Z,20.32
2022-08-04T22:14:11.009Z,20.26
2022-08-04T22:19:13.754Z,20.15
2022-08-04T22:24:15.871Z,20.18
2022-08-04T22:29:18.240Z,20.21
2022-08-04T22:34:20.151Z,20.03
2022-08-04T22:39:27.537Z,19.79
2022-08-04T22:44:33.051Z,19.68
2022-08-04T22:49:42.916Z,19.64
2022-08-04T22:54:44.843Z,19.58
2022-08-04T22:59:47.428Z,19.52
2022-08-04T23:04:54.038Z,19.56
2022-08-04T23:09:56.091Z,19.43
2022-08-04T23:14:58.837Z,19.25
2022-08-04T23:20:00.646Z,19.22
2022-08-04T23:25:02.480Z,19.14
2022-08-04T23:30:06.497Z,19.05
2022-08-04T23:35:09.319Z,18.96
2022-08-04T23:40:32.624Z,18.92
2022-08-04T23:46:06.634Z,18.94
2022-08-04T23:51:04.564Z,18.87
2022-08-04T23:56:19.666Z,18.81
